Time;durP1;ratioP1;P1;durP2;ratioP2;P2;SDS_P1;SDS_P2;PMS_P1;PMS_P2;Temp;Humidity;BMP_temperature;BMP_pressure;BME280_temperature;BME280_humidity;BME280_pressure;Samples;Min_cycle;Max_cycle;Signal;HPM_P1;HPM_P2
2022/05/26 00:01:38;;;;;;;;;;;18.10;79.60;;;;;;5094440;28;20712;-70
2022/05/26 00:04:04;;;;;;;;;;;18.00;79.80;;;;;;5076246;28;19916;-70
2022/05/26 00:06:30;;;;;;;;;;;18.00;80.20;;;;;;5094334;28;19916;-72
2022/05/26 00:08:56;;;;;;;;;;;18.00;80.40;;;;;;5094418;28;20011;-70
2022/05/26 00:11:29;;;;;;;;;;;18.00;80.70;;;;;;5094285;28;19958;-70
2022/05/26 00:13:55;;;;;;;;;;;18.00;80.90;;;;;;5094471;28;20376;-70
2022/05/26 00:16:21;;;;;;;;;;;18.00;81.10;;;;;;5094356;28;20007;-71
2022/05/26 00:18:47;;;;;;;;;;;17.90;81.40;;;;;;5094338;28;19912;-70
2022/05/26 00:21:13;;;;;;;;;;;17.90;81.60;;;;;;5094125;28;19998;-70
2022/05/26 00:23:39;;;;;;;;;;;17.80;81.80;;;;;;5093934;28;19920;-70
2022/05/26 00:26:04;;;;;;;;;;;17.90;82.30;;;;;;5094084;28;19935;-70
2022/05/26 00:28:31;;;;;;;;;;;17.90;82.40;;;;;;5075681;28;19912;-70
2022/05/26 00:30:57;;;;;;;;;;;17.90;82.50;;;;;;5093820;28;19919;-71
2022/05/26 00:33:22;;;;;;;;;;;17.90;82.80;;;;;;5093842;28;20280;-72
2022/05/26 00:35:48;;;;;;;;;;;17.90;83.00;;;;;;5093943;28;19947;-71
2022/05/26 00:38:14;;;;;;;;;;;17.90;83.10;;;;;;5075911;28;19956;-72
2022/05/26 00:40:40;;;;;;;;;;;18.00;83.20;;;;;;5094385;28;19912;-70
2022/05/26 00:43:06;;;;;;;;;;;18.10;83.10;;;;;;5092658;28;19916;-70
2022/05/26 00:45:38;;;;;;;;;;;18.10;83.40;;;;;;5094023;28;20374;-71
2022/05/26 00:48:10;;;;;;;;;;;18.10;83.50;;;;;;5093958;28;19912;-72
2022/05/26 00:50:41;;;;;;;;;;;18.10;83.50;;;;;;5075698;28;20410;-70
2022/05/26 00:53:11;;;;;;;;;;;18.20;83.80;;;;;;5093950;28;20363;-70
2022/05/26 00:55:40;;;;;;;;;;;18.20;83.80;;;;;;5093679;28;19912;-71
2022/05/26 00:58:29;;;;;;;;;;;18.20;84.20;;;;;;5093515;28;19934;-70
2022/05/26 01:00:57;;;;;;;;;;;18.20;84.40;;;;;;5082411;28;19973;-70
2022/05/26 01:03:28;;;;;;;;;;;18.30;84.60;;;;;;5075326;28;19912;-70
2022/05/26 01:06:07;;;;;;;;;;;18.30;84.70;;;;;;5093546;28;19913;-71
2022/05/26 01:08:52;;;;;;;;;;;18.30;85.00;;;;;;5093617;28;20010;-70
2022/05/26 01:11:18;;;;;;;;;;;18.30;85.30;;;;;;5092698;28;20272;-70
2022/05/26 01:13:46;;;;;;;;;;;18.20;85.70;;;;;;5093305;28;19916;-70
2022/05/26 01:16:27;;;;;;;;;;;18.30;85.90;;;;;;5093218;28;19961;-71
2022/05/26 01:18:58;;;;;;;;;;;18.20;86.00;;;;;;5093107;28;19912;-70
2022/05/26 01:21:36;;;;;;;;;;;18.20;86.30;;;;;;5074607;28;19924;-70
2022/05/26 01:24:10;;;;;;;;;;;18.20;86.50;;;;;;5092881;28;19946;-71
2022/05/26 01:26:41;;;;;;;;;;;18.20;86.60;;;;;;5092785;28;20402;-71
2022/05/26 01:29:33;;;;;;;;;;;18.20;86.90;;;;;;5092906;28;20278;-70
2022/05/26 01:32:12;;;;;;;;;;;18.20;87.00;;;;;;5088768;28;19912;-72
2022/05/26 01:34:50;;;;;;;;;;;18.20;87.00;;;;;;5092965;28;19923;-70
2022/05/26 01:37:39;;;;;;;;;;;18.20;87.00;;;;;;5092900;28;19912;-71
2022/05/26 01:40:08;;;;;;;;;;;18.10;87.40;;;;;;5074629;28;19920;-71
2022/05/26 01:42:57;;;;;;;;;;;18.10;87.40;;;;;;5092545;28;19916;-70
2022/05/26 01:45:28;;;;;;;;;;;18.70;87.70;;;;;;5092983;28;20005;-70
2022/05/26 01:48:00;;;;;;;;;;;18.10;87.50;;;;;;5092600;28;19919;-70
2022/05/26 01:50:38;;;;;;;;;;;18.10;87.40;;;;;;5092925;28;20007;-71
2022/05/26 01:53:09;;;;;;;;;;;18.20;87.40;;;;;;5092389;28;20311;-70
2022/05/26 01:55:40;;;;;;;;;;;18.10;87.40;;;;;;5092749;28;20372;-72
2022/05/26 01:58:16;;;;;;;;;;;18.20;87.30;;;;;;5092442;28;19954;-71
2022/05/26 02:00:44;;;;;;;;;;;18.20;87.40;;;;;;5092721;28;19912;-71
2022/05/26 02:03:12;;;;;;;;;;;18.30;87.00;;;;;;5074119;28;20057;-70
2022/05/26 02:05:40;;;;;;;;;;;18.20;87.00;;;;;;5092387;28;19912;-70
2022/05/26 02:08:35;;;;;;;;;;;18.20;86.60;;;;;;5092232;28;19916;-70
2022/05/26 02:11:17;;;;;;;;;;;18.20;86.70;;;;;;5073296;28;19916;-72
2022/05/26 02:13:45;;;;;;;;;;;18.30;86.70;;;;;;5092123;28;19912;-70
2022/05/26 02:16:20;;;;;;;;;;;18.20;86.70;;;;;;5092024;28;20279;-70
2022/05/26 02:18:53;;;;;;;;;;;18.20;86.90;;;;;;5091986;28;19939;-70
2022/05/26 02:21:25;;;;;;;;;;;18.20;87.10;;;;;;5073450;28;19999;-70
2022/05/26 02:23:58;;;;;;;;;;;18.20;88.40;;;;;;5091874;28;20316;-70
2022/05/26 02:26:23;;;;;;;;;;;18.10;90.00;;;;;;5091874;28;19991;-71
2022/05/26 02:31:33;;;;;;;;;;;17.90;90.60;;;;;;5092213;28;19962;-71
2022/05/26 02:34:00;;;;;;;;;;;17.80;90.90;;;;;;5091814;28;19947;-70
2022/05/26 02:36:27;;;;;;;;;;;17.80;90.60;;;;;;5073885;28;20010;-71
2022/05/26 02:38:53;;;;;;;;;;;17.70;90.60;;;;;;5091946;28;19965;-70
2022/05/26 02:41:18;;;;;;;;;;;17.70;90.50;;;;;;5091584;28;20356;-70
2022/05/26 02:43:45;;;;;;;;;;;17.80;90.40;;;;;;5091973;28;19920;-70
2022/05/26 02:46:13;;;;;;;;;;;17.80;90.30;;;;;;5091765;28;20360;-70
2022/05/26 02:48:41;;;;;;;;;;;17.80;90.30;;;;;;5091659;28;19912;-71
2022/05/26 02:51:16;;;;;;;;;;;17.80;90.40;;;;;;5091676;28;20428;-70
2022/05/26 02:53:45;;;;;;;;;;;17.70;90.60;;;;;;5073333;28;19977;-71
2022/05/26 02:56:21;;;;;;;;;;;17.70;91.00;;;;;;5073380;28;19948;-71
2022/05/26 02:58:57;;;;;;;;;;;17.30;92.30;;;;;;5091407;28;19915;-70
2022/05/26 03:01:33;;;;;;;;;;;17.50;93.90;;;;;;5091104;28;19920;-71
2022/05/26 03:04:03;;;;;;;;;;;17.30;95.00;;;;;;5073192;28;19992;-71
2022/05/26 03:06:33;;;;;;;;;;;17.10;96.80;;;;;;5093463;28;19920;-71
2022/05/26 03:09:00;;;;;;;;;;;16.90;98.50;;;;;;5095621;28;19913;-70
2022/05/26 03:11:27;;;;;;;;;;;16.80;99.90;;;;;;5095377;28;20394;-71
2022/05/26 03:13:52;;;;;;;;;;;16.70;99.90;;;;;;5095640;28;19908;-70
2022/05/26 03:16:18;;;;;;;;;;;16.60;99.90;;;;;;5095302;28;19923;-70
2022/05/26 03:18:43;;;;;;;;;;;16.50;99.90;;;;;;5095444;28;19997;-70
2022/05/26 03:21:09;;;;;;;;;;;16.40;99.90;;;;;;5095211;28;20372;-70
2022/05/26 03:23:36;;;;;;;;;;;16.40;99.90;;;;;;5095161;28;19924;-70
2022/05/26 03:26:02;;;;;;;;;;;16.40;99.90;;;;;;5094907;28;20402;-70
2022/05/26 03:28:28;;;;;;;;;;;16.40;99.90;;;;;;5095392;28;19909;-71
2022/05/26 03:30:53;;;;;;;;;;;16.30;99.90;;;;;;5093534;28;19916;-70
2022/05/26 03:33:19;;;;;;;;;;;16.10;99.90;;;;;;5076926;28;20010;-71
2022/05/26 03:41:13;;;;;;;;;;;15.60;99.90;;;;;;5094801;28;19926;-71
2022/05/26 03:43:41;;;;;;;;;;;15.40;99.90;;;;;;5095045;28;20362;-70
2022/05/26 03:46:06;;;;;;;;;;;15.20;99.90;;;;;;5094665;28;20003;-70
2022/05/26 03:48:32;;;;;;;;;;;15.10;99.90;;;;;;5094750;28;19955;-71
2022/05/26 03:50:58;;;;;;;;;;;15.10;99.90;;;;;;5076352;28;19938;-70
2022/05/26 03:53:24;;;;;;;;;;;14.90;99.90;;;;;;5094646;28;19909;-71
2022/05/26 03:55:50;;;;;;;;;;;14.80;99.90;;;;;;5094687;28;19922;-70
2022/05/26 03:58:17;;;;;;;;;;;14.70;99.90;;;;;;5094555;28;20337;-70
2022/05/26 04:00:42;;;;;;;;;;;14.60;99.90;;;;;;5094365;28;19912;-70
2022/05/26 04:03:08;;;;;;;;;;;14.50;99.90;;;;;;5094651;28;19965;-70
2022/05/26 04:05:33;;;;;;;;;;;14.50;99.90;;;;;;5094886;28;19912;-71
2022/05/26 04:07:59;;;;;;;;;;;14.40;99.90;;;;;;5094489;28;19955;-71
2022/05/26 04:10:24;;;;;;;;;;;14.40;99.90;;;;;;5094181;28;19919;-70
2022/05/26 04:12:50;;;;;;;;;;;14.30;99.90;;;;;;5076045;28;19916;-70
2022/05/26 04:15:16;;;;;;;;;;;14.30;99.90;;;;;;5094612;28;20052;-70
2022/05/26 04:17:41;;;;;;;;;;;14.20;99.90;;;;;;5093982;28;19917;-70
2022/05/26 04:20:08;;;;;;;;;;;14.20;99.90;;;;;;5094494;28;19915;-70
2022/05/26 04:22:34;;;;;;;;;;;14.10;99.90;;;;;;5093788;28;20295;-72
2022/05/26 04:25:00;;;;;;;;;;;14.10;99.90;;;;;;5094305;28;19920;-69
2022/05/26 04:27:27;;;;;;;;;;;14.00;99.90;;;;;;5093904;28;19956;-68
2022/05/26 04:29:53;;;;;;;;;;;14.10;99.90;;;;;;5094037;28;20003;-72
2022/05/26 04:32:19;;;;;;;;;;;13.90;99.90;;;;;;5075773;28;19912;-71
2022/05/26 04:34:48;;;;;;;;;;;13.90;99.90;;;;;;5094308;28;19934;-72
2022/05/26 04:37:17;;;;;;;;;;;13.80;99.90;;;;;;5094049;28;19912;-71
2022/05/26 04:39:42;;;;;;;;;;;13.70;99.90;;;;;;5094098;28;19927;-69
2022/05/26 04:42:08;;;;;;;;;;;13.70;99.90;;;;;;5093675;28;19916;-69
2022/05/26 04:44:35;;;;;;;;;;;13.70;99.90;;;;;;5094212;28;19916;-69
2022/05/26 04:47:01;;;;;;;;;;;13.60;99.90;;;;;;5093923;28;19957;-70
2022/05/26 04:49:27;;;;;;;;;;;14.20;99.90;;;;;;5093680;28;19949;-70
2022/05/26 04:51:52;;;;;;;;;;;13.60;99.90;;;;;;5093976;28;19912;-69
2022/05/26 04:54:18;;;;;;;;;;;13.60;99.90;;;;;;5093761;28;19951;-69
2022/05/26 04:56:43;;;;;;;;;;;13.60;99.90;;;;;;5093708;28;19912;-68
2022/05/26 04:59:09;;;;;;;;;;;13.60;99.90;;;;;;5075167;28;19912;-70
2022/05/26 05:01:34;;;;;;;;;;;13.60;99.90;;;;;;5093562;28;19927;-69
2022/05/26 05:04:00;;;;;;;;;;;13.60;99.90;;;;;;5093582;28;20254;-70
2022/05/26 05:06:25;;;;;;;;;;;13.50;99.90;;;;;;5075287;28;19923;-69
2022/05/26 05:08:51;;;;;;;;;;;13.60;99.90;;;;;;5093461;28;20248;-70
2022/05/26 05:11:16;;;;;;;;;;;13.50;99.90;;;;;;5093252;28;20414;-71
2022/05/26 05:13:43;;;;;;;;;;;13.50;99.90;;;;;;5093267;28;19913;-72
2022/05/26 05:16:12;;;;;;;;;;;13.50;99.90;;;;;;5075210;28;20316;-71
2022/05/26 05:18:38;;;;;;;;;;;13.50;99.90;;;;;;5093306;28;19920;-72
2022/05/26 05:21:05;;;;;;;;;;;13.50;99.90;;;;;;5093172;28;19916;-71
2022/05/26 05:23:31;;;;;;;;;;;13.50;99.90;;;;;;5092910;28;20011;-71
2022/05/26 05:25:58;;;;;;;;;;;13.50;99.90;;;;;;5093123;28;19927;-70
2022/05/26 05:28:31;;;;;;;;;;;13.50;99.90;;;;;;5092367;28;20425;-70
2022/05/26 05:31:02;;;;;;;;;;;13.50;99.90;;;;;;5093025;28;19923;-71
2022/05/26 05:33:37;;;;;;;;;;;13.50;99.90;;;;;;5092844;28;20271;-71
2022/05/26 05:36:05;;;;;;;;;;;13.50;99.90;;;;;;5092886;28;19966;-70
2022/05/26 05:38:31;;;;;;;;;;;13.50;99.90;;;;;;5092519;28;19908;-69
2022/05/26 05:40:56;;;;;;;;;;;13.60;99.90;;;;;;5092445;28;19916;-69
2022/05/26 05:43:22;;;;;;;;;;;13.70;99.90;;;;;;5092356;28;19908;-70
2022/05/26 05:45:48;;;;;;;;;;;13.60;99.90;;;;;;5092682;28;19970;-69
2022/05/26 05:48:13;;;;;;;;;;;13.70;99.90;;;;;;5092339;28;19908;-69
2022/05/26 05:50:39;;;;;;;;;;;13.70;99.90;;;;;;5092818;28;20263;-71
2022/05/26 05:53:04;;;;;;;;;;;13.70;99.90;;;;;;5092305;28;20062;-69
2022/05/26 05:55:30;;;;;;;;;;;13.70;99.90;;;;;;5092642;28;19908;-70
2022/05/26 05:57:56;;;;;;;;;;;13.70;99.90;;;;;;5092291;28;19917;-70
2022/05/26 06:00:21;;;;;;;;;;;13.70;99.90;;;;;;5092425;28;20344;-70
2022/05/26 06:02:47;;;;;;;;;;;13.80;99.90;;;;;;5092136;28;20006;-70
2022/05/26 06:05:13;;;;;;;;;;;13.70;99.90;;;;;;5092645;28;19951;-69
2022/05/26 06:07:40;;;;;;;;;;;13.80;99.90;;;;;;5092219;28;19920;-69
2022/05/26 06:10:10;;;;;;;;;;;13.90;99.90;;;;;;5073798;28;19918;-69
2022/05/26 06:12:36;;;;;;;;;;;13.90;99.90;;;;;;5073785;28;19920;-69
2022/05/26 06:15:02;;;;;;;;;;;13.90;99.90;;;;;;5073885;28;19961;-69
2022/05/26 06:17:28;;;;;;;;;;;13.90;99.90;;;;;;5091994;28;19920;-68
2022/05/26 06:19:53;;;;;;;;;;;14.00;99.90;;;;;;5092133;28;19908;-70
2022/05/26 06:22:20;;;;;;;;;;;14.00;99.90;;;;;;5091836;28;20322;-69
2022/05/26 06:24:45;;;;;;;;;;;14.00;99.90;;;;;;5073526;28;19938;-70
2022/05/26 06:29:57;;;;;;;;;;;14.00;99.90;;;;;;5092578;28;20018;-70
2022/05/26 06:37:52;;;;;;;;;;;14.10;99.90;;;;;;5092179;28;19969;-70
2022/05/26 06:40:17;;;;;;;;;;;14.10;99.90;;;;;;5091178;28;20470;-71
2022/05/26 06:42:43;;;;;;;;;;;14.10;99.90;;;;;;5091983;28;19926;-70
2022/05/26 06:45:09;;;;;;;;;;;14.10;99.90;;;;;;5091924;28;19919;-69
2022/05/26 06:47:35;;;;;;;;;;;14.20;99.90;;;;;;5091852;28;19916;-71
2022/05/26 06:50:00;;;;;;;;;;;14.10;99.90;;;;;;5092006;28;20364;-70
2022/05/26 06:52:27;;;;;;;;;;;14.20;99.90;;;;;;5091338;28;19912;-71
2022/05/26 06:54:54;;;;;;;;;;;14.10;99.90;;;;;;5091542;28;19960;-70
2022/05/26 06:57:19;;;;;;;;;;;14.00;99.90;;;;;;5073479;28;19958;-70
2022/05/26 06:59:45;;;;;;;;;;;13.80;99.90;;;;;;5073195;28;19970;-71
2022/05/26 07:02:12;;;;;;;;;;;14.00;99.90;;;;;;5091301;28;19981;-71
2022/05/26 07:04:39;;;;;;;;;;;13.80;99.90;;;;;;5091599;28;19912;-70
2022/05/26 07:07:04;;;;;;;;;;;13.80;99.90;;;;;;5091259;28;19912;-71
2022/05/26 07:09:30;;;;;;;;;;;13.70;99.90;;;;;;5091469;28;19919;-70
2022/05/26 07:11:56;;;;;;;;;;;13.70;99.90;;;;;;5091200;28;19913;-70
2022/05/26 07:14:21;;;;;;;;;;;13.60;99.90;;;;;;5091472;28;19946;-70
2022/05/26 07:16:47;;;;;;;;;;;13.60;99.90;;;;;;5091512;28;19919;-69
2022/05/26 07:19:13;;;;;;;;;;;13.60;99.90;;;;;;5091527;28;20496;-70
2022/05/26 07:21:39;;;;;;;;;;;13.50;99.90;;;;;;5072870;28;20016;-70
2022/05/26 07:24:05;;;;;;;;;;;13.60;99.90;;;;;;5090952;28;19920;-70
2022/05/26 07:26:32;;;;;;;;;;;13.60;99.90;;;;;;5091090;28;19920;-69
2022/05/26 07:29:00;;;;;;;;;;;13.60;99.90;;;;;;5072932;28;20012;-69
2022/05/26 07:31:26;;;;;;;;;;;13.60;99.90;;;;;;5090808;28;20324;-70
2022/05/26 07:33:52;;;;;;;;;;;13.70;99.90;;;;;;5090918;28;19958;-70
2022/05/26 07:41:46;;;;;;;;;;;13.90;99.90;;;;;;5091002;28;19923;-70
2022/05/26 07:44:12;;;;;;;;;;;14.10;99.90;;;;;;5072901;28;19912;-69
2022/05/26 07:46:38;;;;;;;;;;;14.10;99.90;;;;;;5090862;28;19924;-70
2022/05/26 07:49:05;;;;;;;;;;;14.20;99.90;;;;;;5091684;28;20077;-70
2022/05/26 07:51:31;;;;;;;;;;;14.30;99.90;;;;;;5073208;28;19965;-69
2022/05/26 07:53:56;;;;;;;;;;;14.30;99.90;;;;;;5094661;28;19918;-69
2022/05/26 07:56:23;;;;;;;;;;;14.20;99.90;;;;;;5094472;28;20364;-69
2022/05/26 07:58:48;;;;;;;;;;;14.40;99.90;;;;;;5094530;28;19957;-69
2022/05/26 08:01:14;;;;;;;;;;;14.40;99.90;;;;;;5075982;28;19956;-70
2022/05/26 08:03:39;;;;;;;;;;;14.40;99.90;;;;;;5076077;28;19934;-70
2022/05/26 08:06:06;;;;;;;;;;;14.50;99.90;;;;;;5075962;28;19916;-70
2022/05/26 08:08:31;;;;;;;;;;;14.60;99.90;;;;;;5094541;28;20391;-70
2022/05/26 08:10:57;;;;;;;;;;;14.70;99.90;;;;;;5094248;28;19943;-70
2022/05/26 08:13:22;;;;;;;;;;;14.70;99.90;;;;;;5076026;28;19958;-70
2022/05/26 08:15:49;;;;;;;;;;;14.80;99.90;;;;;;5094112;28;19960;-70
2022/05/26 08:18:15;;;;;;;;;;;14.80;99.90;;;;;;5094361;28;19912;-70
2022/05/26 08:20:41;;;;;;;;;;;14.90;99.90;;;;;;5094411;28;20276;-70
2022/05/26 08:23:07;;;;;;;;;;;15.10;99.90;;;;;;5075460;28;20395;-71
2022/05/26 08:25:34;;;;;;;;;;;15.10;99.90;;;;;;5094418;28;20370;-70
2022/05/26 08:27:59;;;;;;;;;;;15.10;99.90;;;;;;5094329;28;19920;-70
2022/05/26 08:30:25;;;;;;;;;;;15.10;99.90;;;;;;5094297;28;19920;-71
2022/05/26 08:32:51;;;;;;;;;;;15.10;99.90;;;;;;5093952;28;20037;-70
2022/05/26 08:35:17;;;;;;;;;;;15.00;99.90;;;;;;5093806;28;19999;-70
2022/05/26 08:37:42;;;;;;;;;;;15.00;99.90;;;;;;5075450;28;20049;-71
2022/05/26 08:40:11;;;;;;;;;;;15.10;99.90;;;;;;5094113;28;19916;-72
2022/05/26 08:42:37;;;;;;;;;;;15.20;99.90;;;;;;5093541;28;19980;-70
2022/05/26 08:45:12;;;;;;;;;;;15.40;99.90;;;;;;5093917;28;19912;-70
2022/05/26 08:47:42;;;;;;;;;;;15.60;99.90;;;;;;5093446;28;20284;-70
2022/05/26 08:50:13;;;;;;;;;;;16.00;99.90;;;;;;5075564;28;19961;-70
2022/05/26 08:52:57;;;;;;;;;;;16.40;99.90;;;;;;5093454;28;19927;-71
2022/05/26 08:55:36;;;;;;;;;;;16.60;99.90;;;;;;5075432;28;19912;-70
2022/05/26 08:58:10;;;;;;;;;;;17.00;99.90;;;;;;5093412;28;20010;-70
2022/05/26 09:00:37;;;;;;;;;;;17.20;99.90;;;;;;5093261;28;20085;-70
2022/05/26 09:03:11;;;;;;;;;;;17.50;99.90;;;;;;5074471;28;20429;-70
2022/05/26 09:05:40;;;;;;;;;;;17.80;99.90;;;;;;5093796;28;20315;-70
2022/05/26 09:13:58;;;;;;;;;;;17.40;99.90;;;;;;5093223;28;19961;-70
2022/05/26 09:16:26;;;;;;;;;;;17.20;99.90;;;;;;5092898;28;19935;-71
2022/05/26 09:19:11;;;;;;;;;;;17.30;99.90;;;;;;5074821;28;19912;-70
2022/05/26 09:21:37;;;;;;;;;;;17.70;99.90;;;;;;5074662;28;19920;-70
2022/05/26 09:24:18;;;;;;;;;;;18.40;99.90;;;;;;5092943;28;19927;-70
2022/05/26 09:26:47;;;;;;;;;;;18.60;99.90;;;;;;5092754;28;19960;-71
2022/05/26 09:29:13;;;;;;;;;;;18.70;99.90;;;;;;5074541;28;19912;-70
2022/05/26 09:31:48;;;;;;;;;;;18.80;99.90;;;;;;5092887;28;20105;-71
2022/05/26 09:34:14;;;;;;;;;;;19.20;99.90;;;;;;5092533;28;19991;-71
2022/05/26 09:36:53;;;;;;;;;;;19.50;99.90;;;;;;5074157;28;19974;-70
2022/05/26 09:39:23;;;;;;;;;;;19.70;99.90;;;;;;5092737;28;20253;-70
2022/05/26 09:41:53;;;;;;;;;;;19.70;99.90;;;;;;5092692;28;19916;-70
2022/05/26 09:44:34;;;;;;;;;;;19.60;99.90;;;;;;5074063;28;19912;-71
2022/05/26 09:47:10;;;;;;;;;;;19.70;99.90;;;;;;5092578;28;19935;-70
2022/05/26 09:49:38;;;;;;;;;;;20.00;99.90;;;;;;5092531;28;20326;-70
2022/05/26 09:52:11;;;;;;;;;;;20.30;99.90;;;;;;5092261;28;19920;-70
2022/05/26 09:54:36;;;;;;;;;;;20.20;99.90;;;;;;5092688;28;20371;-70
2022/05/26 09:57:25;;;;;;;;;;;20.30;99.90;;;;;;5074050;28;19965;-70
2022/05/26 09:59:51;;;;;;;;;;;20.20;99.90;;;;;;5074124;28;19918;-70
2022/05/26 10:02:20;;;;;;;;;;;19.80;99.90;;;;;;5092143;28;20010;-70
2022/05/26 10:04:53;;;;;;;;;;;19.60;99.90;;;;;;5073999;28;19916;-70
2022/05/26 10:07:28;;;;;;;;;;;19.80;99.90;;;;;;5092264;28;19932;-70
2022/05/26 10:10:05;;;;;;;;;;;20.20;99.90;;;;;;5092312;28;19947;-71
2022/05/26 10:12:43;;;;;;;;;;;20.70;99.90;;;;;;5091733;28;19920;-71
2022/05/26 10:15:14;;;;;;;;;;;20.40;99.90;;;;;;5092016;28;19912;-71
2022/05/26 10:17:48;;;;;;;;;;;20.20;99.90;;;;;;5091970;28;20280;-72
2022/05/26 10:20:14;;;;;;;;;;;19.90;99.90;;;;;;5073886;28;19969;-72
2022/05/26 10:22:44;;;;;;;;;;;19.80;99.90;;;;;;5091889;28;19920;-71
2022/05/26 10:25:25;;;;;;;;;;;20.00;99.90;;;;;;5073710;28;19919;-71
2022/05/26 10:28:05;;;;;;;;;;;20.40;99.90;;;;;;5091823;28;20371;-71
2022/05/26 10:30:45;;;;;;;;;;;20.50;99.90;;;;;;5092151;28;19913;-70
2022/05/26 10:33:10;;;;;;;;;;;20.30;99.80;;;;;;5091618;28;19939;-71
2022/05/26 10:35:46;;;;;;;;;;;20.40;99.90;;;;;;5092030;28;20356;-70
2022/05/26 10:38:12;;;;;;;;;;;20.20;99.50;;;;;;5091632;28;20411;-71
2022/05/26 10:40:46;;;;;;;;;;;20.10;99.90;;;;;;5073502;28;19966;-71
2022/05/26 10:43:20;;;;;;;;;;;20.20;99.90;;;;;;5073370;28;19923;-70
2022/05/26 10:45:47;;;;;;;;;;;20.60;99.40;;;;;;5091461;28;19947;-72
2022/05/26 10:48:21;;;;;;;;;;;21.20;98.00;;;;;;5091409;28;19919;-71
2022/05/26 10:50:46;;;;;;;;;;;21.50;96.60;;;;;;5091498;28;19919;-70
2022/05/26 10:53:23;;;;;;;;;;;21.50;95.90;;;;;;5091326;28;20275;-70
2022/05/26 10:55:52;;;;;;;;;;;21.30;96.80;;;;;;5073204;28;19936;-70
2022/05/26 10:58:26;;;;;;;;;;;21.10;96.50;;;;;;5073012;28;19908;-71
2022/05/26 11:00:57;;;;;;;;;;;21.40;97.90;;;;;;5073093;28;19923;-70
2022/05/26 11:03:31;;;;;;;;;;;21.80;95.20;;;;;;5090928;28;19912;-71
2022/05/26 11:06:12;;;;;;;;;;;21.50;94.50;;;;;;5091071;28;19916;-73
2022/05/26 11:09:07;;;;;;;;;;;21.30;95.50;;;;;;5072890;28;20410;-71
2022/05/26 11:11:37;;;;;;;;;;;21.00;94.50;;;;;;5073743;28;19912;-71
2022/05/26 11:14:05;;;;;;;;;;;21.30;94.10;;;;;;5091101;28;19922;-71
2022/05/26 11:19:24;;;;;;;;;;;21.30;92.60;;;;;;5091211;28;20000;-69
2022/05/26 11:21:51;;;;;;;;;;;21.40;92.30;;;;;;5091031;28;19969;-70
2022/05/26 11:24:17;;;;;;;;;;;21.60;92.40;;;;;;5090898;28;19963;-70
2022/05/26 11:26:42;;;;;;;;;;;22.00;91.40;;;;;;5091999;28;20421;-70
2022/05/26 11:29:34;;;;;;;;;;;22.40;91.80;;;;;;5094999;28;20372;-71
2022/05/26 11:38:00;;;;;;;;;;;21.70;91.90;;;;;;5071320;28;19912;-71
2022/05/26 11:40:28;;;;;;;;;;;21.40;91.40;;;;;;5094799;28;19916;-71
2022/05/26 11:42:54;;;;;;;;;;;21.50;92.40;;;;;;5094815;28;19920;-71
2022/05/26 11:45:20;;;;;;;;;;;21.50;91.30;;;;;;5094568;28;20268;-73
2022/05/26 11:47:50;;;;;;;;;;;21.50;91.60;;;;;;5094798;28;19923;-70
2022/05/26 11:50:21;;;;;;;;;;;21.60;92.50;;;;;;5094948;28;19923;-71
2022/05/26 11:52:53;;;;;;;;;;;21.60;90.30;;;;;;5094613;28;20283;-70
2022/05/26 11:55:26;;;;;;;;;;;21.80;89.30;;;;;;5094889;28;20275;-71
2022/05/26 11:57:53;;;;;;;;;;;21.70;90.30;;;;;;5094534;28;19916;-71
2022/05/26 12:00:20;;;;;;;;;;;21.40;89.50;;;;;;5094789;28;19919;-70
2022/05/26 12:02:47;;;;;;;;;;;21.10;90.30;;;;;;5094315;28;19920;-70
2022/05/26 12:05:30;;;;;;;;;;;20.80;91.00;;;;;;5094676;28;19913;-69
2022/05/26 12:07:57;;;;;;;;;;;20.60;90.90;;;;;;5094335;28;19924;-70
2022/05/26 12:10:24;;;;;;;;;;;20.80;90.80;;;;;;5094629;28;19912;-71
2022/05/26 12:13:10;;;;;;;;;;;21.30;90.40;;;;;;5094150;28;19916;-70
2022/05/26 12:15:36;;;;;;;;;;;21.60;90.00;;;;;;5093817;28;20279;-72
2022/05/26 12:18:11;;;;;;;;;;;22.00;88.90;;;;;;5094118;28;20401;-72
2022/05/26 12:20:38;;;;;;;;;;;22.00;88.50;;;;;;5094446;28;19912;-72
2022/05/26 12:23:04;;;;;;;;;;;21.70;90.70;;;;;;5075815;28;20022;-72
2022/05/26 12:25:41;;;;;;;;;;;21.70;90.80;;;;;;5094310;28;20407;-72
2022/05/26 12:28:10;;;;;;;;;;;21.70;87.80;;;;;;5093984;28;19912;-73
2022/05/26 12:30:49;;;;;;;;;;;21.80;87.50;;;;;;5075639;28;20340;-72
2022/05/26 12:33:20;;;;;;;;;;;21.80;89.50;;;;;;5093895;28;19912;-72
2022/05/26 12:35:58;;;;;;;;;;;21.90;90.30;;;;;;5093598;28;20383;-71
2022/05/26 12:38:31;;;;;;;;;;;21.90;86.20;;;;;;5075261;28;19912;-72
2022/05/26 12:41:19;;;;;;;;;;;21.80;86.80;;;;;;5093367;28;19916;-70
2022/05/26 12:43:54;;;;;;;;;;;21.70;87.60;;;;;;5082806;28;19917;-71
2022/05/26 12:46:37;;;;;;;;;;;21.60;89.00;;;;;;5093350;28;19989;-69
2022/05/26 12:49:08;;;;;;;;;;;21.60;86.00;;;;;;5075292;28;19920;-71
2022/05/26 12:51:35;;;;;;;;;;;21.70;90.10;;;;;;5093393;28;20077;-71
2022/05/26 12:54:02;;;;;;;;;;;21.80;86.20;;;;;;5075200;28;20008;-71
2022/05/26 12:56:51;;;;;;;;;;;21.80;87.50;;;;;;5074981;28;19923;-71
2022/05/26 12:59:22;;;;;;;;;;;21.90;86.00;;;;;;5082519;28;19912;-71
2022/05/26 13:01:48;;;;;;;;;;;21.80;85.00;;;;;;5093182;28;20006;-71
2022/05/26 13:04:25;;;;;;;;;;;21.50;83.80;;;;;;5093564;28;20412;-71
2022/05/26 13:06:52;;;;;;;;;;;21.30;84.70;;;;;;5093221;28;19912;-71
2022/05/26 13:09:21;;;;;;;;;;;21.00;85.80;;;;;;5074927;28;19935;-70
2022/05/26 13:11:48;;;;;;;;;;;20.60;86.40;;;;;;5074846;28;19916;-72
2022/05/26 13:14:20;;;;;;;;;;;20.50;87.40;;;;;;5093435;28;19916;-71
2022/05/26 13:16:46;;;;;;;;;;;20.60;89.10;;;;;;5074794;28;20368;-71
2022/05/26 13:19:16;;;;;;;;;;;20.90;88.40;;;;;;5092990;28;19919;-70
2022/05/26 13:21:43;;;;;;;;;;;20.90;86.60;;;;;;5092853;28;19916;-71
2022/05/26 13:24:20;;;;;;;;;;;20.90;86.60;;;;;;5092749;28;19942;-70
2022/05/26 13:26:47;;;;;;;;;;;20.90;86.30;;;;;;5092693;28;20336;-71
2022/05/26 13:29:15;;;;;;;;;;;21.00;86.40;;;;;;5074690;28;19919;-71
2022/05/26 13:34:27;;;;;;;;;;;20.80;85.90;;;;;;5093083;28;19927;-69
2022/05/26 13:36:53;;;;;;;;;;;20.80;85.70;;;;;;5092960;28;19938;-72
2022/05/26 13:39:25;;;;;;;;;;;20.60;85.60;;;;;;5092666;28;19966;-70
2022/05/26 13:41:54;;;;;;;;;;;20.50;88.40;;;;;;5092173;28;19926;-70
2022/05/26 13:44:25;;;;;;;;;;;20.50;86.70;;;;;;5092552;28;19994;-70
2022/05/26 13:46:51;;;;;;;;;;;20.50;87.70;;;;;;5092277;28;19916;-70
2022/05/26 13:49:17;;;;;;;;;;;20.60;86.60;;;;;;5073692;28;19913;-69
2022/05/26 13:51:47;;;;;;;;;;;20.60;87.10;;;;;;5092243;28;19939;-71
2022/05/26 13:54:22;;;;;;;;;;;20.50;87.00;;;;;;5074227;28;19943;-70
2022/05/26 13:56:47;;;;;;;;;;;20.40;86.90;;;;;;5092224;28;19920;-71
2022/05/26 13:59:14;;;;;;;;;;;20.40;86.50;;;;;;5092499;28;20007;-70
2022/05/26 14:01:52;;;;;;;;;;;20.40;87.20;;;;;;5091623;28;20272;-70
2022/05/26 14:04:22;;;;;;;;;;;20.30;90.10;;;;;;5092170;28;19912;-70
2022/05/26 14:06:48;;;;;;;;;;;20.40;87.90;;;;;;5073590;28;19959;-71
2022/05/26 14:09:25;;;;;;;;;;;20.50;87.10;;;;;;5092106;28;19936;-71
2022/05/26 14:12:02;;;;;;;;;;;20.50;87.70;;;;;;5091696;28;19916;-71
2022/05/26 14:14:37;;;;;;;;;;;20.50;87.70;;;;;;5091970;28;20440;-72
2022/05/26 14:17:03;;;;;;;;;;;20.40;89.30;;;;;;5091724;28;20015;-70
2022/05/26 14:19:44;;;;;;;;;;;20.30;88.90;;;;;;5091847;28;19935;-71
2022/05/26 14:22:11;;;;;;;;;;;20.30;88.60;;;;;;5091322;28;20346;-71
2022/05/26 14:24:37;;;;;;;;;;;20.30;89.30;;;;;;5091789;28;20011;-70
2022/05/26 14:27:12;;;;;;;;;;;20.20;90.00;;;;;;5073339;28;19912;-71
2022/05/26 14:29:38;;;;;;;;;;;20.20;89.80;;;;;;5092085;28;20247;-71
2022/05/26 14:32:07;;;;;;;;;;;20.20;90.30;;;;;;5073091;28;20328;-70
2022/05/26 14:34:35;;;;;;;;;;;20.30;91.40;;;;;;5091677;28;20354;-70
2022/05/26 14:37:00;;;;;;;;;;;20.40;90.50;;;;;;5091485;28;19931;-71
2022/05/26 14:39:26;;;;;;;;;;;20.50;90.10;;;;;;5091738;28;19916;-70
2022/05/26 14:41:55;;;;;;;;;;;20.40;90.30;;;;;;5072983;28;20228;-70
2022/05/26 14:44:21;;;;;;;;;;;20.30;90.00;;;;;;5091598;28;19916;-72
2022/05/26 14:46:46;;;;;;;;;;;20.20;90.00;;;;;;5091554;28;19912;-70
2022/05/26 14:49:12;;;;;;;;;;;20.10;90.40;;;;;;5072814;28;19912;-70
2022/05/26 14:51:39;;;;;;;;;;;20.00;90.50;;;;;;5091167;28;20394;-70
2022/05/26 14:56:48;;;;;;;;;;;19.90;91.50;;;;;;5091413;28;19949;-70
2022/05/26 14:59:14;;;;;;;;;;;19.80;90.90;;;;;;5072913;28;20373;-70
2022/05/26 15:01:40;;;;;;;;;;;19.70;90.90;;;;;;5089878;28;20613;-70
2022/05/26 15:04:06;;;;;;;;;;;19.80;91.70;;;;;;5072781;28;19974;-70
2022/05/26 15:06:38;;;;;;;;;;;19.80;91.30;;;;;;5091104;28;19939;-70
2022/05/26 15:09:08;;;;;;;;;;;19.90;91.00;;;;;;5091351;28;19912;-69
2022/05/26 15:11:34;;;;;;;;;;;20.00;91.20;;;;;;5072862;28;20387;-69